Time;durP1;ratioP1;P1;durP2;ratioP2;P2;SDS_P1;SDS_P2;PMS_P1;PMS_P2;Temp;Humidity;BMP_temperature;BMP_pressure;BME280_temperature;BME280_humidity;BME280_pressure;Samples;Min_cycle;Max_cycle;Signal;HPM_P1;HPM_P2
2021/11/23 00:00:37;;;;;;;20.48;3.15;;;7.10;99.90;;;;;;6216609;23;20016;-79
2021/11/23 00:03:04;;;;;;;15.63;2.90;;;7.10;99.90;;;;;;6239787;23;20023;-77
2021/11/23 00:05:31;;;;;;;16.02;2.90;;;7.10;99.90;;;;;;6242038;22;20012;-78
2021/11/23 00:07:57;;;;;;;20.55;3.22;;;7.20;99.90;;;;;;6241249;23;20111;-77
2021/11/23 00:10:22;;;;;;;12.85;3.38;;;7.20;99.90;;;;;;6216849;23;20112;-79
2021/11/23 00:12:50;;;;;;;15.27;2.58;;;7.20;99.90;;;;;;6266555;22;20089;-78
2021/11/23 00:15:15;;;;;;;15.45;2.95;;;7.30;99.90;;;;;;6240810;23;20517;-77
2021/11/23 00:17:41;;;;;;;12.57;3.00;;;7.30;99.90;;;;;;6239417;23;20162;-79
2021/11/23 00:20:07;;;;;;;16.98;3.20;;;7.40;99.90;;;;;;6240124;23;20091;-77
2021/11/23 00:22:34;;;;;;;10.55;3.00;;;7.40;99.90;;;;;;6239503;23;20020;-78
2021/11/23 00:25:00;;;;;;;13.30;3.15;;;7.40;99.90;;;;;;6241264;23;20467;-77
2021/11/23 00:27:26;;;;;;;9.95;2.88;;;7.50;99.90;;;;;;6214228;23;20019;-78
2021/11/23 00:29:52;;;;;;;14.27;3.15;;;7.50;99.90;;;;;;6241628;23;20039;-77
2021/11/23 00:32:18;;;;;;;12.00;3.17;;;7.60;99.90;;;;;;6240447;23;20043;-78
2021/11/23 00:34:44;;;;;;;12.45;3.08;;;7.40;99.90;;;;;;6239096;23;20077;-78
2021/11/23 00:37:10;;;;;;;14.23;3.17;;;7.50;99.90;;;;;;6241729;23;20016;-79
2021/11/23 00:39:36;;;;;;;23.48;3.92;;;7.50;99.90;;;;;;6242549;23;20040;-78
2021/11/23 00:42:01;;;;;;;14.90;3.22;;;7.60;99.90;;;;;;6241628;23;20115;-78
2021/11/23 00:44:27;;;;;;;12.00;3.63;;;7.50;99.90;;;;;;6217215;23;20091;-78
2021/11/23 00:46:53;;;;;;;11.50;2.95;;;7.50;99.90;;;;;;6214609;23;20034;-78
2021/11/23 00:49:18;;;;;;;8.77;2.70;;;7.50;99.90;;;;;;6216095;23;20073;-78
2021/11/23 00:51:44;;;;;;;9.70;2.92;;;7.60;99.90;;;;;;6241593;23;20012;-77
2021/11/23 00:54:10;;;;;;;14.48;3.15;;;7.60;99.90;;;;;;6240120;23;20444;-77
2021/11/23 00:56:36;;;;;;;10.95;2.80;;;7.60;99.90;;;;;;6240432;23;20114;-78
2021/11/23 00:59:02;;;;;;;12.38;2.85;;;7.70;99.90;;;;;;6240647;23;20044;-77
2021/11/23 01:01:28;;;;;;;8.10;2.88;;;7.70;99.90;;;;;;6212830;23;20030;-77
2021/11/23 01:03:54;;;;;;;10.85;3.05;;;7.70;99.90;;;;;;6237391;23;20016;-78
2021/11/23 01:06:20;;;;;;;8.95;3.10;;;7.80;99.90;;;;;;6240728;22;20484;-78
2021/11/23 01:08:47;;;;;;;10.57;3.10;;;7.80;99.90;;;;;;6244803;22;20008;-79
2021/11/23 01:11:15;;;;;;;11.07;3.17;;;7.90;99.90;;;;;;6266860;22;20016;-79
2021/11/23 01:13:41;;;;;;;10.50;2.53;;;7.80;99.90;;;;;;6242012;23;20016;-79
2021/11/23 01:16:08;;;;;;;13.55;3.20;;;7.90;99.90;;;;;;6241099;23;20012;-79
2021/11/23 01:18:34;;;;;;;10.65;2.55;;;7.90;99.90;;;;;;6241131;23;20077;-79
2021/11/23 01:21:00;;;;;;;10.45;2.90;;;8.10;99.90;;;;;;6241349;23;20024;-79
2021/11/23 01:23:27;;;;;;;14.73;3.10;;;8.00;99.90;;;;;;6240636;23;20012;-79
2021/11/23 01:25:54;;;;;;;10.68;2.65;;;8.10;99.90;;;;;;6241769;22;20081;-78
2021/11/23 01:28:20;;;;;;;11.32;3.00;;;8.00;99.90;;;;;;6240538;23;20012;-79
2021/11/23 01:30:46;;;;;;;11.15;2.90;;;8.00;99.90;;;;;;6216345;23;20012;-78
2021/11/23 01:33:12;;;;;;;9.50;2.83;;;8.00;99.90;;;;;;6215337;23;20015;-78
2021/11/23 01:35:37;;;;;;;13.57;3.20;;;8.00;99.90;;;;;;6216175;23;20689;-79
2021/11/23 01:38:03;;;;;;;14.25;3.00;;;8.00;99.90;;;;;;6239677;23;20088;-79
2021/11/23 01:40:29;;;;;;;10.57;2.67;;;8.00;99.90;;;;;;6237946;23;20012;-80
2021/11/23 01:42:56;;;;;;;10.88;2.75;;;8.00;99.90;;;;;;6242260;23;20116;-79
2021/11/23 01:45:21;;;;;;;24.60;3.45;;;8.10;99.90;;;;;;6242285;23;20035;-79
2021/11/23 01:47:47;;;;;;;12.45;2.97;;;8.20;99.90;;;;;;6241713;23;20389;-78
2021/11/23 01:50:14;;;;;;;12.88;3.00;;;8.00;99.90;;;;;;6242936;23;20024;-79
2021/11/23 01:52:41;;;;;;;17.10;3.70;;;8.00;99.90;;;;;;6218484;23;20004;-79
2021/11/23 01:55:09;;;;;;;22.15;2.85;;;8.00;99.90;;;;;;6219085;23;20012;-78
2021/11/23 01:57:36;;;;;;;16.52;3.33;;;8.10;99.90;;;;;;6242258;23;20012;-79
2021/11/23 02:00:07;;;;;;;18.88;3.35;;;8.10;99.90;;;;;;6243987;23;20066;-78
2021/11/23 02:02:33;;;;;;;16.95;3.20;;;8.00;99.90;;;;;;6242682;23;20020;-79
2021/11/23 02:04:58;;;;;;;14.85;3.42;;;8.50;99.90;;;;;;6242961;22;20012;-79
2021/11/23 02:07:24;;;;;;;10.40;2.55;;;8.10;99.90;;;;;;6244043;23;20408;-78
2021/11/23 02:09:50;;;;;;;14.85;3.35;;;8.10;99.90;;;;;;6243201;23;20008;-79
2021/11/23 02:12:16;;;;;;;13.85;3.10;;;8.20;99.90;;;;;;6216480;23;20008;-77
2021/11/23 02:14:42;;;;;;;20.92;4.18;;;8.20;99.90;;;;;;6242552;23;20095;-77
2021/11/23 02:17:07;;;;;;;14.27;3.38;;;8.10;99.90;;;;;;6242942;23;20044;-77
2021/11/23 02:19:34;;;;;;;13.90;3.05;;;8.20;99.90;;;;;;6240249;23;20063;-77
2021/11/23 02:22:00;;;;;;;18.55;2.85;;;8.30;99.90;;;;;;6241010;23;20138;-77
2021/11/23 02:24:26;;;;;;;9.55;2.55;;;8.20;99.90;;;;;;6242444;23;20741;-77
2021/11/23 02:26:51;;;;;;;21.23;2.90;;;8.20;99.90;;;;;;6241720;23;20066;-77
2021/11/23 02:29:17;;;;;;;16.50;2.28;;;8.30;99.90;;;;;;6267792;22;20020;-78
2021/11/23 02:31:44;;;;;;;11.60;2.35;;;8.30;99.90;;;;;;6241736;23;20066;-78
2021/11/23 02:34:11;;;;;;;12.30;2.13;;;8.30;99.90;;;;;;6241962;23;20022;-77
2021/11/23 02:36:38;;;;;;;8.45;1.90;;;8.30;99.90;;;;;;6242677;23;20077;-78
2021/11/23 02:39:05;;;;;;;20.88;1.95;;;8.30;99.90;;;;;;6242711;23;20095;-77
2021/11/23 02:41:30;;;;;;;9.05;1.73;;;8.30;99.90;;;;;;6217640;23;20069;-77
2021/11/23 02:43:56;;;;;;;17.95;1.67;;;8.50;99.90;;;;;;6217334;23;20051;-78
2021/11/23 02:46:22;;;;;;;16.13;1.85;;;8.30;99.90;;;;;;6242463;23;20042;-77
2021/11/23 02:48:47;;;;;;;14.75;1.95;;;8.30;99.90;;;;;;6268103;22;20023;-78
2021/11/23 02:51:16;;;;;;;16.88;2.17;;;8.30;99.90;;;;;;6242933;23;20020;-79
2021/11/23 02:53:48;;;;;;;14.73;2.13;;;8.30;99.90;;;;;;6243874;23;20004;-78
2021/11/23 02:56:14;;;;;;;15.23;2.20;;;8.30;99.90;;;;;;6218275;23;20020;-78
2021/11/23 02:58:43;;;;;;;15.25;2.03;;;8.30;99.90;;;;;;6218898;23;20012;-79
2021/11/23 03:01:09;;;;;;;16.75;2.42;;;8.30;99.90;;;;;;6242940;23;20019;-78
2021/11/23 03:03:36;;;;;;;15.15;2.05;;;8.30;99.90;;;;;;6243293;23;20019;-78
2021/11/23 03:06:01;;;;;;;19.10;2.60;;;8.30;99.90;;;;;;6243581;22;20436;-78
2021/11/23 03:08:27;;;;;;;25.38;2.42;;;8.30;99.90;;;;;;6243662;23;20020;-79
2021/11/23 03:10:53;;;;;;;19.70;2.30;;;8.40;99.90;;;;;;6243402;23;20419;-79
2021/11/23 03:13:19;;;;;;;15.55;2.40;;;8.40;99.90;;;;;;6217613;23;20012;-78
2021/11/23 03:15:44;;;;;;;20.20;2.22;;;8.30;99.90;;;;;;6243962;23;20091;-78
2021/11/23 03:18:10;;;;;;;14.90;2.22;;;8.30;99.90;;;;;;6241723;22;20028;-78
2021/11/23 03:20:37;;;;;;;22.02;2.47;;;8.30;99.90;;;;;;6218244;23;20013;-78
2021/11/23 03:23:05;;;;;;;15.38;2.05;;;8.30;99.90;;;;;;6243250;23;20408;-78
2021/11/23 03:25:31;;;;;;;13.82;2.10;;;8.30;99.90;;;;;;6243349;23;20368;-79
2021/11/23 03:27:57;;;;;;;17.90;1.92;;;8.30;99.90;;;;;;6243369;23;20016;-78
2021/11/23 03:30:28;;;;;;;19.17;1.73;;;8.30;99.90;;;;;;6243259;23;20016;-78
2021/11/23 03:32:56;;;;;;;14.20;1.90;;;8.30;99.90;;;;;;6242331;23;20048;-78
2021/11/23 03:35:26;;;;;;;14.77;1.90;;;8.10;99.90;;;;;;6245733;22;20004;-78
2021/11/23 03:37:52;;;;;;;8.95;1.50;;;8.10;99.90;;;;;;6242821;23;20024;-78
2021/11/23 03:40:21;;;;;;;17.65;1.80;;;8.10;99.90;;;;;;6243177;23;20012;-79
2021/11/23 03:42:47;;;;;;;8.77;1.83;;;8.10;99.90;;;;;;6242748;23;20019;-79
2021/11/23 03:45:12;;;;;;;11.13;1.55;;;8.00;99.90;;;;;;6217983;23;20320;-80
2021/11/23 03:47:38;;;;;;;13.82;1.52;;;8.00;99.90;;;;;;6242152;23;20220;-80
2021/11/23 03:50:07;;;;;;;11.73;1.50;;;7.90;99.90;;;;;;6216148;23;20023;-79
2021/11/23 03:52:33;;;;;;;15.63;1.50;;;8.00;99.90;;;;;;6216383;23;20480;-80
2021/11/23 03:54:59;;;;;;;12.32;1.58;;;7.90;99.90;;;;;;6242110;23;20051;-79
2021/11/23 03:57:25;;;;;;;19.65;1.85;;;7.90;99.90;;;;;;6242836;23;20055;-80
2021/11/23 03:59:51;;;;;;;8.85;1.60;;;7.90;99.90;;;;;;6217733;23;20440;-79
2021/11/23 04:02:19;;;;;;;14.70;1.90;;;7.80;99.90;;;;;;6241868;23;20016;-79
2021/11/23 04:04:45;;;;;;;11.45;1.83;;;7.80;99.90;;;;;;6241549;22;20016;-79
2021/11/23 04:07:11;;;;;;;13.13;2.22;;;7.80;99.90;;;;;;6217668;23;20027;-79
2021/11/23 04:09:38;;;;;;;21.90;1.75;;;7.80;99.90;;;;;;6242761;23;20016;-79
2021/11/23 04:12:04;;;;;;;11.32;1.92;;;7.80;99.90;;;;;;6242396;23;20534;-80
2021/11/23 04:14:29;;;;;;;14.48;2.20;;;7.80;99.90;;;;;;6242617;23;20035;-79
2021/11/23 04:16:55;;;;;;;16.75;1.85;;;7.90;99.90;;;;;;6216873;23;20011;-79
2021/11/23 04:19:21;;;;;;;17.80;1.70;;;8.00;99.90;;;;;;6216532;23;20091;-79
2021/11/23 04:21:47;;;;;;;14.32;1.60;;;8.20;99.90;;;;;;6217068;23;20027;-78
2021/11/23 04:24:12;;;;;;;10.23;1.60;;;8.00;99.90;;;;;;6242190;23;20022;-78
2021/11/23 04:26:38;;;;;;;18.38;2.03;;;8.00;99.90;;;;;;6216870;23;20432;-77
2021/11/23 04:29:04;;;;;;;10.15;1.55;;;7.90;99.90;;;;;;6242537;23;20038;-78
2021/11/23 04:31:29;;;;;;;11.32;1.70;;;7.90;99.90;;;;;;6241279;23;20397;-77
2021/11/23 04:33:55;;;;;;;16.63;1.52;;;7.90;99.90;;;;;;6216848;23;20026;-78
2021/11/23 04:36:21;;;;;;;10.70;1.52;;;7.80;99.90;;;;;;6267806;22;20059;-77
2021/11/23 04:38:47;;;;;;;10.18;1.63;;;7.80;99.90;;;;;;6242500;23;20027;-78
2021/11/23 04:41:12;;;;;;;13.25;1.77;;;7.80;99.90;;;;;;6242146;23;20016;-78
2021/11/23 04:43:38;;;;;;;15.80;1.80;;;7.80;99.90;;;;;;6242684;23;20368;-78
2021/11/23 04:46:04;;;;;;;15.00;1.88;;;7.70;99.90;;;;;;6217481;23;20028;-78
2021/11/23 04:48:30;;;;;;;10.38;1.38;;;7.70;99.90;;;;;;6216302;23;20032;-78
2021/11/23 04:50:56;;;;;;;17.65;2.08;;;7.70;99.90;;;;;;6241754;23;20020;-78
2021/11/23 04:53:23;;;;;;;13.40;1.80;;;7.80;99.90;;;;;;6242281;23;20103;-78
2021/11/23 04:55:52;;;;;;;19.75;2.38;;;7.70;99.90;;;;;;6242747;23;20054;-78
2021/11/23 04:58:18;;;;;;;16.15;1.80;;;7.70;99.90;;;;;;6242207;23;20400;-78
2021/11/23 05:00:44;;;;;;;16.48;2.00;;;7.60;99.90;;;;;;6242933;23;20020;-78
2021/11/23 05:03:10;;;;;;;22.73;1.73;;;7.80;99.90;;;;;;6240872;23;20105;-79
2021/11/23 05:05:36;;;;;;;26.75;2.38;;;7.70;99.90;;;;;;6242255;22;20439;-79
2021/11/23 05:08:02;;;;;;;25.95;2.55;;;7.60;99.90;;;;;;6217127;23;20019;-79
2021/11/23 05:10:28;;;;;;;19.90;2.22;;;7.50;99.90;;;;;;6242472;23;20096;-79
2021/11/23 05:12:53;;;;;;;19.90;2.05;;;7.70;99.90;;;;;;6241232;23;20016;-79
2021/11/23 05:15:19;;;;;;;22.15;2.10;;;7.50;99.90;;;;;;6241488;23;20048;-79
2021/11/23 05:17:45;;;;;;;15.85;1.73;;;7.50;99.90;;;;;;6241307;23;20012;-79
2021/11/23 05:20:12;;;;;;;17.30;2.13;;;7.50;99.90;;;;;;6215412;23;20070;-79
2021/11/23 05:22:38;;;;;;;20.83;2.50;;;7.40;99.90;;;;;;6241994;23;20085;-79
2021/11/23 05:25:06;;;;;;;22.50;2.00;;;7.40;99.90;;;;;;6216710;23;20095;-79
2021/11/23 05:27:32;;;;;;;14.70;1.77;;;7.50;99.90;;;;;;6241481;23;20012;-80
2021/11/23 05:29:59;;;;;;;18.77;2.03;;;7.50;99.90;;;;;;6244181;22;20309;-77
2021/11/23 05:32:25;;;;;;;21.65;2.72;;;7.50;99.90;;;;;;6241667;23;20012;-77
2021/11/23 05:34:51;;;;;;;17.67;2.10;;;7.60;99.90;;;;;;6241401;23;20012;-77
2021/11/23 05:37:16;;;;;;;7.90;1.55;;;7.50;99.90;;;;;;6241878;23;20046;-78
2021/11/23 05:39:42;;;;;;;15.30;1.60;;;7.50;99.90;;;;;;6242091;23;20103;-78
2021/11/23 05:42:08;;;;;;;13.25;1.67;;;7.50;99.90;;;;;;6241725;23;20060;-78
2021/11/23 05:44:34;;;;;;;15.70;1.80;;;7.50;99.90;;;;;;6242007;23;20087;-78
2021/11/23 05:50:52;;;;;;;15.30;2.08;;;7.50;99.90;;;;;;6156802;22;20125;-81
2021/11/23 05:53:33;;;;;;;19.08;1.70;;;7.60;99.90;;;;;;6241552;23;20470;-76
2021/11/23 05:56:00;;;;;;;19.70;2.00;;;7.30;99.90;;;;;;6241324;23;20012;-76
2021/11/23 05:58:37;;;;;;;15.27;1.65;;;7.70;99.90;;;;;;6241448;23;20019;-77
2021/11/23 06:01:11;;;;;;;19.75;1.70;;;7.50;99.90;;;;;;6267454;22;20364;-76
2021/11/23 06:03:40;;;;;;;13.93;1.33;;;7.30;99.90;;;;;;6241447;23;20063;-76
2021/11/23 06:06:10;;;;;;;11.00;1.80;;;7.50;99.90;;;;;;6240907;22;20095;-76
2021/11/23 06:08:40;;;;;;;13.02;1.50;;;7.70;99.90;;;;;;6217210;23;20016;-79
2021/11/23 06:11:06;;;;;;;10.98;1.60;;;7.10;99.90;;;;;;6216785;23;20460;-76
2021/11/23 06:13:32;;;;;;;18.10;1.67;;;7.10;99.90;;;;;;6241033;23;20263;-76
2021/11/23 06:15:58;;;;;;;13.63;1.60;;;7.00;99.90;;;;;;6241733;23;20413;-76
2021/11/23 06:18:24;;;;;;;12.80;1.95;;;6.90;99.90;;;;;;6241098;23;20016;-75
2021/11/23 06:20:53;;;;;;;11.60;1.88;;;6.90;99.90;;;;;;6267942;22;20019;-76
2021/11/23 06:23:20;;;;;;;19.13;2.15;;;6.90;99.90;;;;;;6240787;23;20074;-77
2021/11/23 06:25:48;;;;;;;16.45;2.17;;;6.80;99.90;;;;;;6240216;23;20324;-77
2021/11/23 06:28:15;;;;;;;13.52;2.45;;;6.90;99.90;;;;;;6240391;23;20069;-75
2021/11/23 06:30:42;;;;;;;17.77;1.95;;;6.90;99.90;;;;;;6242278;23;20091;-75
2021/11/23 06:33:08;;;;;;;10.73;2.28;;;6.90;99.90;;;;;;6241299;23;20013;-75
2021/11/23 06:35:35;;;;;;;21.63;2.35;;;6.80;99.90;;;;;;6268146;22;20091;-74
2021/11/23 06:38:01;;;;;;;14.90;2.22;;;6.90;99.90;;;;;;6242172;23;20501;-75
2021/11/23 06:40:27;;;;;;;13.40;1.98;;;6.90;99.90;;;;;;6215824;23;20016;-77
2021/11/23 06:42:52;;;;;;;17.15;2.20;;;6.90;99.90;;;;;;6215805;23;20045;-76
2021/11/23 06:45:18;;;;;;;15.32;2.00;;;7.00;99.90;;;;;;6241233;23;20020;-75
2021/11/23 06:47:46;;;;;;;10.63;2.05;;;7.00;99.90;;;;;;6215506;23;20100;-76
2021/11/23 06:50:12;;;;;;;18.00;2.50;;;7.00;99.90;;;;;;6240257;23;20054;-76
2021/11/23 06:52:38;;;;;;;15.82;2.00;;;7.00;99.90;;;;;;6242176;23;20289;-76
2021/11/23 06:55:05;;;;;;;20.67;2.63;;;7.10;99.90;;;;;;6242013;23;20020;-76
2021/11/23 06:57:31;;;;;;;22.10;3.45;;;7.20;99.90;;;;;;6241843;23;20065;-77
2021/11/23 06:59:56;;;;;;;15.27;2.58;;;7.30;99.90;;;;;;6217198;23;20016;-77
2021/11/23 07:02:22;;;;;;;17.05;2.40;;;7.30;99.90;;;;;;6240979;23;20016;-77
2021/11/23 07:04:48;;;;;;;11.93;2.00;;;7.30;99.90;;;;;;6216422;23;20262;-77
2021/11/23 07:07:13;;;;;;;21.38;2.90;;;7.40;99.90;;;;;;6217402;23;20386;-77
2021/11/23 07:09:42;;;;;;;12.75;2.95;;;7.40;99.90;;;;;;6215943;23;20460;-77
2021/11/23 07:12:09;;;;;;;13.73;2.75;;;7.40;99.90;;;;;;6242208;23;20079;-76
2021/11/23 07:14:35;;;;;;;18.83;2.90;;;7.40;99.90;;;;;;6215418;23;20018;-75
2021/11/23 07:17:01;;;;;;;14.38;2.55;;;7.50;99.90;;;;;;6240764;23;20044;-77
2021/11/23 07:19:26;;;;;;;17.33;2.50;;;7.40;99.90;;;;;;6214944;23;20359;-76
2021/11/23 07:21:52;;;;;;;15.77;2.22;;;7.40;99.90;;;;;;6241071;23;20398;-77
2021/11/23 07:24:17;;;;;;;16.30;2.67;;;7.40;99.90;;;;;;6241728;23;20036;-76
2021/11/23 07:26:43;;;;;;;17.55;2.38;;;7.40;99.90;;;;;;6216222;23;20016;-76
2021/11/23 07:29:09;;;;;;;13.48;2.35;;;7.40;99.90;;;;;;6240794;23;20435;-79
2021/11/23 07:31:35;;;;;;;17.20;2.35;;;7.40;99.90;;;;;;6240573;23;20016;-80
2021/11/23 07:34:06;;;;;;;13.93;2.13;;;7.40;99.90;;;;;;6242572;23;20055;-79
2021/11/23 07:36:32;;;;;;;14.55;2.30;;;7.40;99.90;;;;;;6215744;23;20051;-79
2021/11/23 07:39:00;;;;;;;21.50;2.83;;;7.40;99.90;;;;;;6241351;23;20008;-77
2021/11/23 07:41:27;;;;;;;19.60;2.30;;;7.40;99.90;;;;;;6240466;23;20016;-76
2021/11/23 07:44:03;;;;;;;16.85;2.38;;;7.40;99.90;;;;;;6241274;23;20012;-80
2021/11/23 07:46:37;;;;;;;21.17;2.70;;;7.40;99.90;;;;;;6239735;23;20016;-81
2021/11/23 07:49:26;;;;;;;;;;;;;;;;;;;;;
2021/11/23 07:51:54;;;;;;;18.88;2.75;;;7.40;99.90;;;;;;6240715;23;20086;-81
2021/11/23 07:54:20;;;;;;;18.02;2.33;;;8.10;99.90;;;;;;6217199;23;20347;-82
2021/11/23 07:56:46;;;;;;;21.65;2.28;;;7.80;99.90;;;;;;6216517;23;20102;-81
2021/11/23 07:59:12;;;;;;;19.90;2.60;;;8.10;99.90;;;;;;6242936;23;20074;-81
2021/11/23 08:01:41;;;;;;;23.38;3.20;;;7.30;99.90;;;;;;6216987;23;20016;-77
2021/11/23 08:04:09;;;;;;;17.33;2.00;;;6.90;99.90;;;;;;6216773;22;20106;-78
2021/11/23 08:06:35;;;;;;;20.15;2.55;;;6.90;99.90;;;;;;6242713;23;20012;-80
2021/11/23 08:09:00;;;;;;;16.80;2.10;;;7.30;99.90;;;;;;6242147;23;20455;-76
2021/11/23 08:11:26;;;;;;;16.63;2.17;;;7.70;99.90;;;;;;6241908;23;20009;-77
2021/11/23 08:13:53;;;;;;;11.90;2.00;;;7.20;99.90;;;;;;6242180;23;20012;-81
2021/11/23 08:16:19;;;;;;;11.68;2.05;;;7.20;99.90;;;;;;6241487;23;20099;-80
2021/11/23 08:18:44;;;;;;;22.10;2.10;;;7.10;99.90;;;;;;6240924;23;20382;-77
2021/11/23 08:21:10;;;;;;;17.35;2.20;;;7.20;99.90;;;;;;6241439;23;20024;-79
2021/11/23 08:23:36;;;;;;;12.20;2.03;;;7.10;99.90;;;;;;6241268;23;20016;-80
2021/11/23 08:26:03;;;;;;;16.10;2.20;;;7.00;99.90;;;;;;6216832;23;20016;-81
2021/11/23 08:28:28;;;;;;;15.07;1.83;;;7.10;99.90;;;;;;6241499;23;20514;-78
2021/11/23 08:30:56;;;;;;;17.60;2.08;;;7.00;99.90;;;;;;6241409;23;20016;-76
2021/11/23 08:33:23;;;;;;;15.30;2.63;;;6.50;99.90;;;;;;6239589;23;20091;-76
2021/11/23 08:35:49;;;;;;;18.58;2.35;;;7.00;99.90;;;;;;6242807;22;20016;-80
2021/11/23 08:38:14;;;;;;;14.48;1.73;;;7.00;99.90;;;;;;6240534;23;20095;-78
2021/11/23 08:40:40;;;;;;;16.30;2.40;;;7.00;99.90;;;;;;6215635;23;20113;-79
2021/11/23 08:43:08;;;;;;;15.57;2.42;;;7.00;99.90;;;;;;6241338;23;20023;-78
2021/11/23 08:45:33;;;;;;;17.95;2.38;;;7.00;99.90;;;;;;6241468;23;20012;-77
2021/11/23 08:47:59;;;;;;;18.85;2.35;;;7.00;99.90;;;;;;6240703;23;20027;-76
2021/11/23 08:50:27;;;;;;;15.55;2.28;;;7.10;99.90;;;;;;6240633;23;20016;-81
2021/11/23 08:52:52;;;;;;;11.13;1.90;;;7.10;99.90;;;;;;6215884;23;20016;-76
2021/11/23 08:55:18;;;;;;;18.35;2.13;;;7.10;99.90;;;;;;6216636;23;20302;-78
2021/11/23 08:57:44;;;;;;;20.17;2.33;;;7.50;99.90;;;;;;6240873;23;20103;-76
2021/11/23 09:02:40;;;;;;;13.32;1.98;;;7.30;99.90;;;;;;6241601;23;20055;-78
2021/11/23 09:05:11;;;;;;;14.65;2.00;;;7.50;99.90;;;;;;6216283;23;20317;-78
2021/11/23 09:07:40;;;;;;;20.85;2.63;;;7.50;99.90;;;;;;6216993;23;20019;-78
2021/11/23 09:10:10;;;;;;;11.32;1.95;;;7.70;99.90;;;;;;6241561;23;20091;-82
2021/11/23 09:12:36;;;;;;;23.35;1.95;;;7.80;99.90;;;;;;6216475;23;20104;-79
2021/11/23 09:15:02;;;;;;;14.02;2.08;;;7.90;99.90;;;;;;6216493;23;20400;-82
2021/11/23 09:17:27;;;;;;;15.65;1.95;;;7.90;99.90;;;;;;6241559;23;20012;-81
2021/11/23 09:19:53;;;;;;;13.20;1.75;;;7.90;99.90;;;;;;6241273;23;20340;-80
2021/11/23 09:22:19;;;;;;;10.98;1.80;;;7.90;99.90;;;;;;6216186;23;20024;-79
2021/11/23 09:24:45;;;;;;;12.38;1.92;;;8.00;99.90;;;;;;6240171;23;20305;-82
2021/11/23 09:27:10;;;;;;;15.27;2.08;;;8.00;99.90;;;;;;6214556;23;20115;-78
2021/11/23 09:29:36;;;;;;;14.55;1.92;;;8.00;99.90;;;;;;6241441;23;20016;-79
2021/11/23 09:32:03;;;;;;;15.48;2.13;;;8.10;99.90;;;;;;6239005;23;20098;-78
2021/11/23 09:34:28;;;;;;;15.00;2.13;;;8.10;99.90;;;;;;6215181;23;20016;-78
2021/11/23 09:36:55;;;;;;;16.95;2.30;;;8.10;99.90;;;;;;6241408;22;20039;-79
2021/11/23 09:39:21;;;;;;;17.63;2.38;;;8.20;99.90;;;;;;6216192;23;20083;-79
2021/11/23 09:41:47;;;;;;;13.68;2.00;;;8.20;99.90;;;;;;6240454;23;20039;-80
2021/11/23 09:44:13;;;;;;;15.63;2.00;;;8.20;99.90;;;;;;6240599;23;20119;-80
2021/11/23 09:46:44;;;;;;;15.93;1.90;;;8.20;99.90;;;;;;6240878;23;20107;-83
2021/11/23 09:49:14;;;;;;;13.73;2.10;;;8.20;99.90;;;;;;6240780;23;20048;-80
2021/11/23 09:51:40;;;;;;;12.68;1.98;;;8.30;99.90;;;;;;6215798;23;20031;-79
2021/11/23 09:54:08;;;;;;;13.32;1.77;;;8.30;99.90;;;;;;6216530;23;20008;-80
2021/11/23 09:56:36;;;;;;;17.98;2.33;;;8.40;99.90;;;;;;6239535;23;20047;-80
2021/11/23 09:59:03;;;;;;;9.40;1.83;;;8.50;99.90;;;;;;6240827;23;20327;-78
2021/11/23 10:01:44;;;;;;;13.88;1.90;;;8.60;99.90;;;;;;6241571;23;20016;-78
2021/11/23 10:04:10;;;;;;;13.68;2.10;;;8.60;99.90;;;;;;6242364;22;20098;-76
2021/11/23 10:06:50;;;;;;;11.98;1.58;;;8.70;99.90;;;;;;6243792;23;20125;-78
2021/11/23 10:09:32;;;;;;;9.73;1.35;;;8.70;99.90;;;;;;6244086;23;20016;-77
2021/11/23 10:12:15;;;;;;;15.30;1.90;;;8.80;99.90;;;;;;6242994;23;20016;-77
2021/11/23 10:15:20;;;;;;;12.20;1.50;;;8.90;99.90;;;;;;6242916;23;20086;-79
2021/11/23 10:17:48;;;;;;;11.52;1.45;;;8.90;99.90;;;;;;6241989;23;20047;-80
2021/11/23 10:20:33;;;;;;;8.18;1.38;;;9.00;99.90;;;;;;6243046;23;20019;-83
2021/11/23 10:23:20;;;;;;;10.15;1.60;;;9.10;99.90;;;;;;6243114;23;20397;-79
2021/11/23 10:25:49;;;;;;;14.45;2.10;;;9.20;99.90;;;;;;6243301;23;20012;-80
2021/11/23 10:28:16;;;;;;;10.55;1.70;;;9.30;99.90;;;;;;6243790;23;20115;-80
2021/11/23 10:30:45;;;;;;;16.20;1.90;;;9.30;99.90;;;;;;6244057;23;20337;-80
2021/11/23 10:33:13;;;;;;;12.63;1.63;;;9.30;99.90;;;;;;6242625;23;20044;-80
2021/11/23 10:35:42;;;;;;;10.38;1.85;;;9.40;99.90;;;;;;6243915;23;20008;-81
2021/11/23 10:38:09;;;;;;;7.32;1.42;;;9.50;99.90;;;;;;6243305;23;20013;-81
2021/11/23 10:40:37;;;;;;;8.95;1.45;;;9.70;99.90;;;;;;6242821;23;20024;-81
2021/11/23 10:43:07;;;;;;;10.18;1.52;;;9.90;99.90;;;;;;6242948;23;20074;-80
2021/11/23 10:45:36;;;;;;;15.13;1.77;;;9.90;99.90;;;;;;6218243;23;20020;-80
2021/11/23 10:48:03;;;;;;;11.93;1.85;;;10.10;99.90;;;;;;6242224;23;20474;-81
2021/11/23 10:50:30;;;;;;;7.30;1.40;;;9.90;99.90;;;;;;6243756;23;20107;-80
2021/11/23 10:53:06;;;;;;;9.90;1.95;;;9.90;99.90;;;;;;6243073;23;20008;-80
2021/11/23 10:55:36;;;;;;;10.38;1.70;;;9.80;99.90;;;;;;6244049;23;20023;-81
2021/11/23 10:58:04;;;;;;;9.68;1.75;;;9.80;99.90;;;;;;6243598;23;20135;-81
2021/11/23 11:00:33;;;;;;;10.73;1.70;;;9.70;99.90;;;;;;6244004;23;20039;-81
2021/11/23 11:03:03;;;;;;;8.82;1.60;;;9.70;99.90;;;;;;6217034;23;20016;-80
2021/11/23 11:05:32;;;;;;;12.35;1.58;;;9.60;99.90;;;;;;6242947;22;20020;-79
2021/11/23 11:07:58;;;;;;;11.07;1.60;;;9.60;99.90;;;;;;6243258;23;20012;-80
2021/11/23 11:10:24;;;;;;;13.63;2.20;;;9.60;99.90;;;;;;6243173;23;20323;-80
2021/11/23 11:12:51;;;;;;;9.40;1.40;;;9.60;99.90;;;;;;6243594;23;20436;-79
2021/11/23 11:15:21;;;;;;;7.20;1.20;;;9.70;99.90;;;;;;6243198;23;20016;-83
2021/11/23 11:17:49;;;;;;;15.93;1.63;;;9.70;99.90;;;;;;6243308;23;20004;-80
2021/11/23 11:20:35;;;;;;;6.57;1.30;;;9.90;99.90;;;;;;6243398;23;20012;-80
2021/11/23 11:23:20;;;;;;;15.07;2.05;;;10.10;99.90;;;;;;6156302;23;20020;-81
2021/11/23 11:28:38;;;;;;;12.65;1.88;;;10.30;99.90;;;;;;6156161;23;20155;-80
2021/11/23 11:31:07;;;;;;;11.30;1.42;;;10.50;99.90;;;;;;6156535;23;20264;-80
2021/11/23 11:33:34;;;;;;;12.18;1.60;;;10.70;99.90;;;;;;6131563;23;20092;-80
2021/11/23 11:36:00;;;;;;;8.60;1.20;;;10.80;99.90;;;;;;6157173;23;20012;-79
2021/11/23 11:38:25;;;;;;;12.88;1.55;;;10.60;99.90;;;;;;6132142;23;20040;-78
2021/11/23 11:41:04;;;;;;;11.23;1.90;;;10.60;99.90;;;;;;6132443;23;20032;-79
2021/11/23 11:43:34;;;;;;;11.73;1.25;;;10.70;99.90;;;;;;6156590;23;20029;-79
2021/11/23 11:46:01;;;;;;;13.32;1.77;;;10.70;99.90;;;;;;6132523;22;20013;-79
2021/11/23 11:48:33;;;;;;;13.35;1.70;;;10.60;99.90;;;;;;6130619;23;20017;-79
2021/11/23 11:51:09;;;;;;;10.20;1.65;;;10.50;99.90;;;;;;6131952;23;20017;-79
2021/11/23 11:53:42;;;;;;;9.10;1.35;;;10.60;99.90;;;;;;6156561;23;20016;-79
2021/11/23 11:56:09;;;;;;;12.98;1.60;;;10.60;99.90;;;;;;6156785;23;20023;-79
2021/11/23 11:58:48;;;;;;;15.43;1.52;;;10.80;99.90;;;;;;6156644;23;20016;-79
2021/11/23 12:01:27;;;;;;;11.60;1.50;;;10.80;99.90;;;;;;6238729;23;20038;-79
2021/11/23 12:04:16;;;;;;;8.27;1.45;;;10.90;99.90;;;;;;6242969;23;20012;-79
2021/11/23 12:06:59;;;;;;;8.70;1.35;;;10.90;99.90;;;;;;6243245;23;20035;-79
2021/11/23 12:09:42;;;;;;;11.07;1.52;;;11.00;99.90;;;;;;6242621;23;20025;-79
2021/11/23 12:12:11;;;;;;;9.60;1.23;;;11.10;99.90;;;;;;6242873;23;20258;-79
2021/11/23 12:14:52;;;;;;;10.52;1.52;;;11.30;99.90;;;;;;6217929;23;20334;-79
2021/11/23 12:17:50;;;;;;;17.10;1.70;;;11.50;99.90;;;;;;6217209;23;20428;-80
2021/11/23 12:20:48;;;;;;;8.13;1.45;;;11.60;99.90;;;;;;6243250;23;20018;-80
2021/11/23 12:23:41;;;;;;;6.22;1.08;;;11.50;99.90;;;;;;6242661;23;20016;-79
2021/11/23 12:26:16;;;;;;;6.45;1.25;;;11.40;99.90;;;;;;6216510;23;20079;-79
2021/11/23 12:29:13;;;;;;;9.77;1.30;;;11.10;99.90;;;;;;6242700;23;20012;-79
2021/11/23 12:31:51;;;;;;;8.10;0.98;;;10.90;99.90;;;;;;6215717;23;20074;-80
2021/11/23 12:34:17;;;;;;;6.38;1.13;;;10.80;99.90;;;;;;6243217;22;20055;-80
2021/11/23 12:37:09;;;;;;;7.05;1.17;;;10.70;99.90;;;;;;6242536;23;20047;-77
2021/11/23 12:39:37;;;;;;;7.65;1.10;;;10.40;99.90;;;;;;6238544;23;20337;-77
2021/11/23 12:42:12;;;;;;;10.65;1.40;;;10.30;99.90;;;;;;6267576;22;20019;-79
2021/11/23 12:44:42;;;;;;;11.07;1.70;;;10.20;99.90;;;;;;6242808;23;20059;-79
2021/11/23 12:47:14;;;;;;;9.10;1.30;;;10.10;99.90;;;;;;6242159;23;20016;-77
2021/11/23 12:49:41;;;;;;;6.28;0.98;;;10.00;99.90;;;;;;6241845;23;20087;-79
2021/11/23 12:52:10;;;;;;;10.98;1.30;;;10.00;99.90;;;;;;6217115;23;20016;-78
2021/11/23 12:54:42;;;;;;;5.15;1.30;;;10.00;99.90;;;;;;6242605;23;20304;-76
2021/11/23 12:57:19;;;;;;;6.00;1.10;;;10.00;99.90;;;;;;6241388;23;20424;-77
2021/11/23 12:59:56;;;;;;;9.05;1.20;;;10.00;99.90;;;;;;6216684;23;20377;-77
2021/11/23 13:02:34;;;;;;;9.60;1.05;;;9.90;99.90;;;;;;6240955;22;20015;-78